Time;durP1;ratioP1;P1;durP2;ratioP2;P2;SDS_P1;SDS_P2;PMS_P1;PMS_P2;Temp;Humidity;BMP_temperature;BMP_pressure;BME280_temperature;BME280_humidity;BME280_pressure;Samples;Min_cycle;Max_cycle;Signal;HPM_P1;HPM_P2
2021/01/30 00:01:45;;;;;;;0.50;0.50;;;5.90;99.90;;;;;;4996365;28;20172;-66
2021/01/30 00:04:14;;;;;;;1.10;0.80;;;5.80;99.90;;;;;;4995012;28;20725;-66
2021/01/30 00:07:06;;;;;;;2.40;0.65;;;5.90;99.90;;;;;;4996095;28;20203;-66
2021/01/30 00:09:32;;;;;;;1.05;1.02;;;5.90;99.90;;;;;;4992614;28;20204;-66
2021/01/30 00:12:01;;;;;;;1.07;0.53;;;5.90;99.90;;;;;;4996316;28;20176;-66
2021/01/30 00:14:33;;;;;;;1.15;0.73;;;5.80;99.90;;;;;;4996481;28;20223;-66
2021/01/30 00:17:00;;;;;;;3.83;1.00;;;5.80;99.90;;;;;;4994803;28;20642;-67
2021/01/30 00:19:27;;;;;;;0.93;0.50;;;5.90;99.90;;;;;;4996043;28;20187;-66
2021/01/30 00:21:56;;;;;;;0.68;0.68;;;5.90;99.90;;;;;;4996222;28;20180;-66
2021/01/30 00:24:24;;;;;;;3.47;1.10;;;5.80;99.90;;;;;;4995931;28;20220;-66
2021/01/30 00:26:54;;;;;;;1.10;0.63;;;5.80;99.90;;;;;;4995863;28;20180;-66
2021/01/30 00:29:21;;;;;;;0.70;0.60;;;5.90;99.90;;;;;;4996010;28;20524;-66
2021/01/30 00:31:47;;;;;;;0.82;0.82;;;6.00;99.90;;;;;;4996012;28;20199;-67
2021/01/30 00:34:14;;;;;;;0.90;0.90;;;5.80;99.90;;;;;;4995633;28;20674;-66
2021/01/30 00:36:40;;;;;;;1.25;0.98;;;5.50;99.90;;;;;;4995593;28;20183;-66
2021/01/30 00:39:05;;;;;;;0.63;0.63;;;5.40;99.90;;;;;;4995714;28;20264;-66
2021/01/30 00:41:31;;;;;;;1.97;1.17;;;5.50;99.90;;;;;;4995762;28;20172;-66
2021/01/30 00:43:58;;;;;;;1.40;1.10;;;5.60;99.90;;;;;;4995367;28;20776;-66
2021/01/30 00:46:24;;;;;;;2.25;0.90;;;5.70;99.90;;;;;;4995449;28;20176;-66
2021/01/30 00:48:49;;;;;;;1.53;0.90;;;5.70;99.90;;;;;;4995533;28;20187;-66
2021/01/30 00:51:19;;;;;;;2.33;1.47;;;5.50;99.90;;;;;;4995454;28;20172;-66
2021/01/30 00:53:45;;;;;;;3.97;1.40;;;5.70;99.90;;;;;;4995271;28;20347;-66
2021/01/30 00:56:12;;;;;;;1.15;1.10;;;5.80;99.90;;;;;;4995209;28;20223;-66
2021/01/30 00:58:39;;;;;;;6.93;1.10;;;5.60;99.90;;;;;;4995447;28;20256;-66
2021/01/30 01:01:04;;;;;;;3.33;0.93;;;5.50;99.90;;;;;;4995276;28;20640;-66
2021/01/30 01:03:30;;;;;;;4.70;1.17;;;5.60;99.90;;;;;;4995088;28;20200;-66
2021/01/30 01:05:56;;;;;;;2.60;1.00;;;5.70;99.90;;;;;;4994965;28;20172;-66
2021/01/30 01:08:21;;;;;;;1.73;1.43;;;5.70;99.90;;;;;;4995187;28;20212;-66
2021/01/30 01:10:47;;;;;;;4.30;1.27;;;5.60;99.90;;;;;;4995146;28;20216;-66
2021/01/30 01:13:13;;;;;;;5.20;1.10;;;5.70;99.90;;;;;;4995054;28;20703;-66
2021/01/30 01:15:39;;;;;;;3.28;1.85;;;5.80;99.90;;;;;;4994828;28;20184;-66
2021/01/30 01:18:04;;;;;;;2.97;1.10;;;5.90;99.90;;;;;;4994944;28;20563;-66
2021/01/30 01:20:30;;;;;;;3.80;1.77;;;5.90;99.90;;;;;;4994978;28;20686;-66
2021/01/30 01:22:56;;;;;;;5.03;1.23;;;5.90;99.90;;;;;;4994795;28;20423;-66
2021/01/30 01:25:22;;;;;;;10.13;1.83;;;5.70;99.90;;;;;;4994608;28;20200;-66
2021/01/30 01:27:48;;;;;;;0.95;0.80;;;5.80;99.90;;;;;;4994878;28;20199;-67
2021/01/30 01:30:15;;;;;;;3.90;1.50;;;5.80;99.90;;;;;;4994952;28;20172;-66
2021/01/30 01:32:42;;;;;;;5.07;1.02;;;5.80;99.90;;;;;;4994575;28;20511;-66
2021/01/30 01:35:12;;;;;;;8.32;2.78;;;5.80;99.90;;;;;;4994525;28;20212;-67
2021/01/30 01:37:37;;;;;;;2.63;1.23;;;5.80;99.90;;;;;;4994588;28;20226;-67
2021/01/30 01:40:04;;;;;;;7.23;1.57;;;5.60;99.90;;;;;;4993410;28;20642;-66
2021/01/30 01:42:30;;;;;;;10.55;1.42;;;5.70;99.90;;;;;;4994552;28;20164;-66
2021/01/30 01:44:56;;;;;;;2.10;1.10;;;5.80;99.90;;;;;;4994360;28;20183;-67
2021/01/30 01:47:37;;;;;;;9.50;2.00;;;5.90;99.90;;;;;;4994489;28;20693;-66
2021/01/30 01:50:33;;;;;;;6.75;1.48;;;5.90;99.90;;;;;;4994715;28;20168;-66
2021/01/30 01:53:25;;;;;;;4.45;1.80;;;6.00;99.90;;;;;;4987817;28;20666;-66
2021/01/30 01:55:56;;;;;;;4.40;1.10;;;5.80;99.90;;;;;;4993890;28;20176;-66
2021/01/30 01:58:23;;;;;;;7.80;1.30;;;5.80;99.90;;;;;;4994564;28;20184;-66
2021/01/30 02:00:51;;;;;;;2.55;1.00;;;5.80;99.90;;;;;;4994466;28;20168;-66
2021/01/30 02:03:18;;;;;;;7.47;1.95;;;5.90;99.90;;;;;;4994317;28;20196;-66
2021/01/30 02:05:44;;;;;;;2.70;0.95;;;6.00;99.90;;;;;;4994047;28;20223;-66
2021/01/30 02:08:14;;;;;;;1.47;1.37;;;5.90;99.90;;;;;;4994185;28;20638;-66
2021/01/30 02:10:46;;;;;;;1.48;1.38;;;6.00;99.90;;;;;;4994175;28;20197;-67
2021/01/30 02:13:16;;;;;;;3.00;1.13;;;5.80;99.90;;;;;;4994241;28;20192;-66
2021/01/30 02:15:44;;;;;;;1.88;1.27;;;5.80;99.90;;;;;;4993846;28;20175;-66
2021/01/30 02:18:40;;;;;;;7.53;2.03;;;5.70;99.90;;;;;;4994043;28;20202;-66
2021/01/30 02:21:30;;;;;;;1.27;1.17;;;5.70;99.90;;;;;;4994181;28;20182;-66
2021/01/30 02:24:21;;;;;;;13.68;2.75;;;5.70;99.90;;;;;;4994066;28;20562;-66
2021/01/30 02:27:25;;;;;;;4.72;2.08;;;5.60;99.90;;;;;;4993930;28;20207;-66
2021/01/30 02:30:28;;;;;;;2.47;1.40;;;5.50;99.90;;;;;;4950740;28;20233;-66
2021/01/30 02:33:14;;;;;;;2.60;2.08;;;5.60;99.90;;;;;;4993928;28;20214;-67
2021/01/30 02:35:55;;;;;;;12.93;1.77;;;5.40;99.90;;;;;;4993779;28;20184;-66
2021/01/30 02:38:26;;;;;;;2.85;1.33;;;5.40;99.90;;;;;;4994094;28;20200;-66
2021/01/30 02:41:14;;;;;;;8.45;1.55;;;5.20;99.90;;;;;;4993944;28;20267;-66
2021/01/30 02:43:43;;;;;;;7.75;1.60;;;5.50;99.90;;;;;;4993122;28;20214;-66
2021/01/30 02:46:19;;;;;;;3.00;1.52;;;5.60;99.90;;;;;;4993615;28;20227;-66
2021/01/30 02:48:49;;;;;;;3.50;1.30;;;5.60;99.90;;;;;;4994069;28;20576;-66
2021/01/30 02:51:22;;;;;;;3.15;1.70;;;5.70;99.90;;;;;;4994437;28;20188;-66
2021/01/30 02:53:52;;;;;;;10.40;2.13;;;5.70;99.90;;;;;;4993885;28;20223;-67
2021/01/30 02:56:21;;;;;;;8.57;2.35;;;5.60;99.90;;;;;;4993659;28;20183;-66
2021/01/30 02:59:01;;;;;;;1.67;1.58;;;5.70;99.90;;;;;;4993814;28;20191;-66
2021/01/30 03:01:27;;;;;;;6.40;1.40;;;5.70;99.90;;;;;;4993853;28;20168;-66
2021/01/30 03:04:00;;;;;;;1.10;1.00;;;5.80;99.90;;;;;;4993598;28;20207;-66
2021/01/30 03:06:40;;;;;;;1.92;1.20;;;5.90;99.90;;;;;;4995309;28;20414;-66
2021/01/30 03:09:09;;;;;;;1.77;0.77;;;5.90;99.90;;;;;;4997371;28;20208;-67
2021/01/30 03:11:41;;;;;;;3.80;1.60;;;5.80;99.90;;;;;;4997470;28;20172;-66
2021/01/30 03:14:19;;;;;;;4.15;1.80;;;5.80;99.90;;;;;;4997154;28;20230;-66
2021/01/30 03:16:46;;;;;;;4.57;1.17;;;5.70;99.90;;;;;;4996983;28;20262;-67
2021/01/30 03:19:25;;;;;;;5.38;1.35;;;5.70;99.90;;;;;;4997232;28;20165;-66
2021/01/30 03:21:59;;;;;;;0.98;0.90;;;5.60;99.90;;;;;;4997305;28;20530;-66
2021/01/30 03:24:26;;;;;;;3.78;2.03;;;5.70;99.90;;;;;;4997242;28;20530;-66
2021/01/30 03:26:52;;;;;;;2.45;1.00;;;5.80;99.90;;;;;;4996929;28;20164;-66
2021/01/30 03:29:19;;;;;;;1.10;0.97;;;5.80;99.90;;;;;;4997050;28;20263;-66
2021/01/30 03:31:45;;;;;;;1.40;1.20;;;5.90;99.90;;;;;;4997183;28;20407;-66
2021/01/30 03:34:14;;;;;;;0.95;0.95;;;5.80;99.90;;;;;;4996980;28;20211;-66
2021/01/30 03:36:39;;;;;;;8.68;2.13;;;5.90;99.90;;;;;;4996738;28;20171;-66
2021/01/30 03:39:14;;;;;;;3.60;1.50;;;5.90;99.90;;;;;;4996977;28;20544;-66
2021/01/30 03:41:41;;;;;;;5.30;1.98;;;5.80;99.90;;;;;;4996811;28;20174;-66
2021/01/30 03:44:07;;;;;;;4.20;1.35;;;5.80;99.90;;;;;;4996688;28;20601;-66
2021/01/30 03:46:33;;;;;;;5.63;2.00;;;5.80;99.90;;;;;;4996506;28;20535;-66
2021/01/30 03:48:59;;;;;;;3.50;1.97;;;5.80;99.90;;;;;;4996923;28;20207;-67
2021/01/30 03:51:24;;;;;;;16.53;2.13;;;5.90;99.90;;;;;;4996769;28;20531;-66
2021/01/30 03:53:50;;;;;;;3.13;1.43;;;5.90;99.90;;;;;;4996540;28;20200;-66
2021/01/30 03:56:15;;;;;;;2.93;1.40;;;5.70;99.90;;;;;;4996373;28;20697;-67
2021/01/30 03:58:43;;;;;;;2.10;1.43;;;5.70;99.90;;;;;;4996417;28;20176;-66
2021/01/30 04:01:09;;;;;;;4.70;1.50;;;5.80;99.90;;;;;;4996582;28;20703;-66
2021/01/30 04:03:35;;;;;;;17.77;2.07;;;5.90;99.90;;;;;;4996577;28;20301;-66
2021/01/30 04:06:01;;;;;;;2.50;1.67;;;5.80;99.90;;;;;;4996112;28;20537;-66
2021/01/30 04:08:26;;;;;;;1.97;1.50;;;6.00;99.90;;;;;;4996252;28;20404;-66
2021/01/30 04:10:52;;;;;;;9.27;1.90;;;6.00;99.90;;;;;;4996106;28;20270;-66
2021/01/30 04:13:19;;;;;;;4.30;1.65;;;6.10;99.90;;;;;;4996157;28;20581;-66
2021/01/30 04:15:45;;;;;;;4.00;1.27;;;6.00;99.90;;;;;;4996221;28;20175;-66
2021/01/30 04:18:12;;;;;;;3.45;1.55;;;6.10;99.90;;;;;;4995504;28;20191;-66
2021/01/30 04:20:39;;;;;;;9.27;2.83;;;6.20;99.90;;;;;;4996222;28;20261;-66
2021/01/30 04:23:06;;;;;;;2.30;1.80;;;6.20;99.90;;;;;;4995945;28;20185;-66
2021/01/30 04:25:32;;;;;;;3.05;1.80;;;6.30;99.90;;;;;;4995848;28;20196;-66
2021/01/30 04:27:58;;;;;;;4.65;2.30;;;6.10;99.90;;;;;;4995990;28;20186;-66
2021/01/30 04:30:28;;;;;;;4.78;2.70;;;6.00;99.90;;;;;;4996078;28;20638;-66
2021/01/30 04:32:54;;;;;;;8.77;2.55;;;6.10;99.90;;;;;;4995929;28;20620;-66
2021/01/30 04:35:23;;;;;;;3.13;1.97;;;6.10;99.90;;;;;;4995506;28;20291;-66
2021/01/30 04:37:48;;;;;;;9.00;3.60;;;6.10;99.90;;;;;;4995951;28;20177;-66
2021/01/30 04:40:26;;;;;;;3.07;1.67;;;6.20;99.90;;;;;;4994361;28;20236;-66
2021/01/30 04:43:08;;;;;;;3.47;2.30;;;6.00;99.90;;;;;;4995820;28;20192;-66
2021/01/30 04:45:55;;;;;;;1.70;1.60;;;5.80;99.90;;;;;;4995465;28;20171;-66
2021/01/30 04:48:41;;;;;;;2.20;1.45;;;5.80;99.90;;;;;;4995560;28;20172;-66
2021/01/30 04:51:18;;;;;;;2.67;1.30;;;5.90;99.90;;;;;;4995595;28;20638;-67
2021/01/30 04:53:51;;;;;;;4.68;1.40;;;5.90;99.90;;;;;;4995268;28;20203;-66
2021/01/30 04:56:22;;;;;;;4.53;1.77;;;5.80;99.90;;;;;;4995239;28;20180;-66
2021/01/30 04:59:30;;;;;;;4.35;2.40;;;5.90;99.90;;;;;;4995499;28;20168;-66
2021/01/30 05:02:41;;;;;;;9.07;1.90;;;6.00;99.90;;;;;;4995448;28;20227;-66
2021/01/30 05:05:12;;;;;;;6.80;2.08;;;6.10;99.90;;;;;;4965377;28;20387;-66
2021/01/30 05:08:00;;;;;;;2.95;1.40;;;6.10;99.90;;;;;;4995035;28;20176;-66
2021/01/30 05:10:41;;;;;;;2.72;1.88;;;5.90;99.90;;;;;;4994947;28;20191;-66
2021/01/30 05:13:16;;;;;;;6.55;1.38;;;6.00;99.90;;;;;;4995141;28;20204;-66
2021/01/30 05:15:53;;;;;;;10.20;1.95;;;6.10;99.90;;;;;;4995088;28;20179;-66
2021/01/30 05:18:34;;;;;;;10.77;2.42;;;6.20;99.90;;;;;;4995050;28;20315;-66
2021/01/30 05:21:07;;;;;;;7.63;2.20;;;6.20;99.90;;;;;;4995359;28;20173;-66
2021/01/30 05:23:34;;;;;;;10.90;1.60;;;6.20;99.90;;;;;;4995271;28;20279;-66
2021/01/30 05:26:17;;;;;;;2.78;2.25;;;6.10;99.90;;;;;;4994796;28;20226;-66
2021/01/30 05:28:59;;;;;;;6.03;2.53;;;6.20;99.90;;;;;;4994598;28;20188;-66
2021/01/30 05:31:38;;;;;;;7.25;2.47;;;6.20;99.90;;;;;;4994503;28;20717;-66
2021/01/30 05:34:16;;;;;;;3.80;2.20;;;6.10;99.90;;;;;;4994813;28;20211;-67
2021/01/30 05:37:02;;;;;;;3.17;2.03;;;5.90;99.90;;;;;;4994670;28;20287;-66
2021/01/30 05:40:01;;;;;;;3.25;1.00;;;5.80;99.90;;;;;;4994845;28;20254;-66
2021/01/30 05:42:37;;;;;;;9.18;2.13;;;5.80;99.90;;;;;;4994546;28;20173;-66
2021/01/30 05:45:21;;;;;;;1.80;1.70;;;5.90;99.90;;;;;;4994702;28;20156;-66
2021/01/30 05:47:51;;;;;;;1.85;1.55;;;6.00;99.90;;;;;;4994529;28;20207;-66
2021/01/30 05:50:24;;;;;;;8.18;2.40;;;6.10;99.90;;;;;;4994589;28;20187;-66
2021/01/30 05:52:51;;;;;;;4.65;1.75;;;6.00;99.90;;;;;;4994600;28;20192;-66
2021/01/30 05:55:29;;;;;;;4.20;1.92;;;6.00;99.90;;;;;;4994136;28;20204;-66
2021/01/30 05:58:03;;;;;;;1.73;1.52;;;6.00;99.90;;;;;;4994431;28;20168;-66
2021/01/30 06:00:29;;;;;;;5.97;2.22;;;6.00;99.90;;;;;;4994553;28;20200;-67
2021/01/30 06:03:15;;;;;;;5.32;2.20;;;6.00;99.90;;;;;;4994264;28;20547;-67
2021/01/30 06:05:45;;;;;;;7.50;2.20;;;5.70;99.90;;;;;;4994325;28;20180;-67
2021/01/30 06:08:16;;;;;;;5.50;3.70;;;5.50;99.90;;;;;;4994317;28;20171;-66
2021/01/30 06:10:43;;;;;;;4.78;1.33;;;5.70;99.90;;;;;;4994190;28;20589;-66
2021/01/30 06:13:24;;;;;;;6.97;1.55;;;5.70;99.90;;;;;;4994117;28;20192;-66
2021/01/30 06:15:55;;;;;;;7.00;2.80;;;5.80;99.90;;;;;;4994002;28;20215;-66
2021/01/30 06:18:26;;;;;;;4.10;1.70;;;5.70;99.90;;;;;;4992957;28;20664;-66
2021/01/30 06:21:00;;;;;;;3.88;1.42;;;5.80;99.90;;;;;;4992930;28;20271;-66
2021/01/30 06:23:27;;;;;;;7.30;2.10;;;5.90;99.90;;;;;;4994145;28;20203;-66
2021/01/30 06:26:04;;;;;;;1.85;1.75;;;6.00;99.90;;;;;;4993900;28;20175;-67
2021/01/30 06:28:34;;;;;;;5.30;1.80;;;5.80;99.90;;;;;;4994199;28;20172;-66
2021/01/30 06:31:24;;;;;;;2.33;1.02;;;5.80;99.90;;;;;;4994039;28;20221;-67
2021/01/30 06:33:57;;;;;;;3.58;1.48;;;5.80;99.90;;;;;;4993892;28;20290;-66
2021/01/30 06:36:28;;;;;;;4.05;2.38;;;5.80;99.90;;;;;;4992537;28;20627;-66
2021/01/30 06:39:19;;;;;;;9.30;4.20;;;5.80;99.90;;;;;;4994191;28;20188;-67
2021/01/30 06:41:54;;;;;;;4.22;1.30;;;5.80;99.90;;;;;;4982676;28;20187;-66
2021/01/30 06:44:27;;;;;;;2.00;1.80;;;5.80;99.90;;;;;;4997633;28;20200;-66
2021/01/30 06:47:13;;;;;;;3.78;2.05;;;5.80;99.90;;;;;;4997719;28;20259;-66
2021/01/30 06:49:43;;;;;;;5.53;2.40;;;5.90;99.90;;;;;;4997635;28;20761;-65
2021/01/30 06:52:22;;;;;;;1.15;1.00;;;6.00;99.90;;;;;;4997557;28;20176;-71
2021/01/30 06:55:06;;;;;;;4.70;2.15;;;6.40;99.90;;;;;;4997648;28;20258;-66
2021/01/30 06:57:33;;;;;;;4.45;1.92;;;7.00;99.90;;;;;;4997847;28;20631;-66
2021/01/30 07:00:06;;;;;;;4.38;1.50;;;7.10;99.60;;;;;;4997495;28;20176;-66
2021/01/30 07:02:42;;;;;;;4.53;2.55;;;7.00;98.80;;;;;;4997449;28;20264;-66
2021/01/30 07:05:11;;;;;;;4.18;2.05;;;6.70;98.90;;;;;;4997242;28;20177;-66
2021/01/30 07:08:06;;;;;;;7.00;1.83;;;6.50;99.70;;;;;;4997363;28;20575;-66
2021/01/30 07:10:51;;;;;;;2.33;1.33;;;6.30;99.90;;;;;;4997458;28;20192;-66
2021/01/30 07:13:47;;;;;;;5.07;2.13;;;6.20;99.90;;;;;;4997099;28;20200;-66
2021/01/30 07:16:21;;;;;;;6.57;1.90;;;6.30;99.90;;;;;;4997259;28;20537;-66
2021/01/30 07:19:11;;;;;;;5.55;1.58;;;6.30;99.90;;;;;;4997414;28;20164;-66
2021/01/30 07:22:07;;;;;;;5.78;2.00;;;6.20;99.90;;;;;;4997411;28;20247;-66
2021/01/30 07:24:42;;;;;;;3.35;2.33;;;6.10;99.90;;;;;;4993148;28;20204;-67
2021/01/30 07:27:24;;;;;;;6.28;1.67;;;6.00;99.90;;;;;;4997086;28;20182;-66
2021/01/30 07:30:03;;;;;;;6.47;1.95;;;6.00;99.90;;;;;;4997351;28;20179;-67
2021/01/30 07:32:57;;;;;;;11.35;2.05;;;5.90;99.90;;;;;;4996613;28;20192;-66
2021/01/30 07:35:34;;;;;;;3.00;1.60;;;5.80;99.90;;;;;;4995508;28;20543;-67
2021/01/30 07:38:24;;;;;;;10.82;3.55;;;5.80;99.90;;;;;;4996979;28;20202;-66
2021/01/30 07:41:05;;;;;;;2.03;1.80;;;5.80;99.90;;;;;;4996874;28;20187;-66
2021/01/30 07:43:37;;;;;;;2.75;1.58;;;5.90;99.90;;;;;;4996765;28;20200;-66
2021/01/30 07:46:24;;;;;;;11.57;2.25;;;5.80;99.90;;;;;;4996895;28;20182;-68
2021/01/30 07:48:58;;;;;;;4.38;3.90;;;5.90;99.90;;;;;;4996678;28;20646;-68
2021/01/30 07:51:36;;;;;;;9.63;2.20;;;6.00;99.90;;;;;;4996832;28;20187;-66
2021/01/30 07:54:02;;;;;;;4.35;1.65;;;6.10;99.90;;;;;;4995477;28;20205;-66
2021/01/30 07:56:41;;;;;;;5.28;2.08;;;6.00;99.90;;;;;;4995939;28;20203;-67
2021/01/30 07:59:12;;;;;;;12.75;2.60;;;6.00;99.90;;;;;;4996585;28;20200;-66
2021/01/30 08:02:03;;;;;;;3.17;1.65;;;5.90;99.90;;;;;;4995547;28;20180;-67
2021/01/30 08:04:56;;;;;;;2.33;1.40;;;6.00;99.90;;;;;;4996741;28;20188;-66
2021/01/30 08:07:40;;;;;;;5.60;2.63;;;6.00;99.90;;;;;;4997050;28;20255;-67
2021/01/30 08:10:53;;;;;;;3.33;1.60;;;6.00;99.90;;;;;;4996358;28;20262;-66
2021/01/30 08:13:24;;;;;;;5.50;2.00;;;6.00;99.90;;;;;;4979317;28;20574;-66
2021/01/30 08:16:10;;;;;;;2.70;1.30;;;6.10;99.90;;;;;;4996256;28;20231;-67
2021/01/30 08:18:37;;;;;;;5.00;1.33;;;6.30;99.90;;;;;;4995829;28;20184;-67
2021/01/30 08:21:06;;;;;;;7.57;1.95;;;6.40;99.90;;;;;;4996530;28;20184;-67
2021/01/30 08:23:51;;;;;;;2.83;1.67;;;6.50;99.90;;;;;;4996351;28;20192;-66
2021/01/30 08:26:21;;;;;;;7.82;2.30;;;6.60;99.90;;;;;;4996044;28;20191;-67
2021/01/30 08:28:59;;;;;;;4.93;1.98;;;6.70;99.90;;;;;;4996133;28;20208;-67
2021/01/30 08:31:34;;;;;;;5.75;1.80;;;6.70;99.90;;;;;;4996366;28;20195;-67
2021/01/30 08:34:20;;;;;;;5.80;1.90;;;6.50;99.90;;;;;;4996138;28;20662;-67
2021/01/30 08:37:01;;;;;;;6.07;2.10;;;6.60;99.90;;;;;;4996348;28;20251;-66
2021/01/30 08:39:30;;;;;;;2.55;1.90;;;6.60;99.90;;;;;;4995853;28;20172;-68
2021/01/30 08:42:01;;;;;;;4.13;0.98;;;6.50;99.90;;;;;;4996038;28;20500;-67
2021/01/30 08:44:32;;;;;;;2.35;1.95;;;6.60;99.90;;;;;;4996040;28;20239;-67
2021/01/30 08:47:15;;;;;;;12.60;1.67;;;6.70;99.90;;;;;;4995983;28;20172;-67
2021/01/30 08:49:53;;;;;;;4.72;1.33;;;6.80;99.90;;;;;;4995860;28;20531;-67
2021/01/30 08:52:23;;;;;;;4.20;1.20;;;6.70;99.90;;;;;;4995710;28;20619;-67
2021/01/30 08:54:49;;;;;;;10.30;1.30;;;6.80;99.90;;;;;;4995620;28;20577;-67
2021/01/30 08:57:33;;;;;;;3.97;1.33;;;7.00;99.90;;;;;;4995961;28;20305;-67
2021/01/30 09:00:31;;;;;;;2.83;1.15;;;7.10;99.40;;;;;;4995477;28;20203;-67
2021/01/30 09:03:02;;;;;;;1.05;1.02;;;7.20;99.20;;;;;;4995331;28;20188;-67
2021/01/30 09:05:33;;;;;;;1.80;1.30;;;7.30;99.30;;;;;;4995415;28;20188;-67
2021/01/30 09:08:34;;;;;;;3.33;1.25;;;7.50;99.20;;;;;;4995846;28;20549;-67
2021/01/30 09:11:23;;;;;;;6.65;2.17;;;7.60;98.60;;;;;;4995310;28;20596;-68
2021/01/30 09:14:18;;;;;;;8.00;1.55;;;7.50;98.80;;;;;;4996009;28;20255;-68
2021/01/30 09:16:56;;;;;;;1.52;1.40;;;7.60;98.90;;;;;;4994979;28;20168;-66
2021/01/30 09:19:42;;;;;;;3.78;1.48;;;7.30;98.30;;;;;;4993886;28;20171;-68
2021/01/30 09:22:22;;;;;;;7.22;2.25;;;7.10;98.90;;;;;;4995023;28;20168;-67
2021/01/30 09:25:11;;;;;;;4.93;1.80;;;6.90;99.90;;;;;;4994752;28;20576;-66
2021/01/30 09:27:48;;;;;;;2.90;1.00;;;7.20;99.90;;;;;;4995309;28;20184;-66
2021/01/30 09:30:39;;;;;;;7.93;2.28;;;7.40;99.50;;;;;;4995393;28;20181;-66
2021/01/30 09:33:30;;;;;;;7.68;2.08;;;7.70;99.00;;;;;;4989662;28;20673;-66
2021/01/30 09:36:07;;;;;;;2.47;1.00;;;7.90;98.40;;;;;;4994160;28;20188;-65
2021/01/30 09:38:37;;;;;;;2.75;1.88;;;8.00;98.00;;;;;;4995060;28;20687;-66
2021/01/30 09:41:22;;;;;;;5.72;2.63;;;8.00;97.80;;;;;;4994602;28;20185;-65
2021/01/30 09:43:48;;;;;;;1.80;1.67;;;8.00;98.20;;;;;;4994932;28;20195;-66
2021/01/30 09:46:22;;;;;;;3.97;1.60;;;8.00;98.10;;;;;;4994436;28;20578;-67
2021/01/30 09:48:49;;;;;;;8.30;1.20;;;8.00;97.40;;;;;;4994505;28;20663;-66
2021/01/30 09:51:15;;;;;;;3.15;1.80;;;7.60;97.70;;;;;;4993366;28;20203;-65
2021/01/30 09:53:58;;;;;;;3.60;1.97;;;7.50;98.30;;;;;;4994495;28;20275;-67
2021/01/30 09:56:24;;;;;;;3.95;1.67;;;7.70;98.80;;;;;;4994426;28;20418;-65
2021/01/30 09:58:57;;;;;;;2.22;1.30;;;7.80;98.40;;;;;;4994346;28;20283;-68
2021/01/30 10:01:24;;;;;;;5.18;1.48;;;7.90;98.40;;;;;;4993297;28;20173;-68
2021/01/30 10:03:50;;;;;;;2.85;2.28;;;8.00;97.90;;;;;;4994291;28;20196;-68
2021/01/30 10:06:24;;;;;;;5.57;2.87;;;7.90;98.20;;;;;;4994315;28;20180;-67
2021/01/30 10:08:50;;;;;;;11.85;3.75;;;8.00;98.30;;;;;;4994881;28;20409;-68
2021/01/30 10:11:19;;;;;;;4.00;1.93;;;8.00;98.50;;;;;;4994591;28;20636;-66
2021/01/30 10:13:54;;;;;;;5.47;3.25;;;8.00;98.60;;;;;;4994009;28;20217;-67
2021/01/30 10:16:23;;;;;;;3.15;2.35;;;8.10;98.10;;;;;;4993509;28;20180;-66
2021/01/30 10:19:23;;;;;;;3.90;3.03;;;8.20;97.80;;;;;;4994518;28;20232;-66
2021/01/30 10:21:49;;;;;;;5.93;2.97;;;8.20;97.90;;;;;;4991014;28;20191;-66
2021/01/30 10:24:22;;;;;;;3.60;2.80;;;8.20;97.80;;;;;;4994025;28;20569;-66
2021/01/30 10:26:51;;;;;;;5.28;2.17;;;8.20;97.20;;;;;;4993899;28;20186;-66
2021/01/30 10:29:21;;;;;;;3.55;1.58;;;8.20;97.40;;;;;;4994661;28;20189;-66
2021/01/30 10:31:54;;;;;;;1.88;1.40;;;8.10;97.20;;;;;;4994425;28;20669;-65
2021/01/30 10:34:34;;;;;;;3.80;1.58;;;8.00;97.10;;;;;;4992880;28;20297;-65
2021/01/30 10:37:13;;;;;;;2.33;1.73;;;8.10;97.30;;;;;;4994261;28;20169;-66
2021/01/30 10:39:48;;;;;;;2.20;1.85;;;8.20;97.60;;;;;;4994142;28;20169;-65
2021/01/30 10:42:23;;;;;;;1.05;1.05;;;8.10;97.30;;;;;;4994205;28;20166;-67
2021/01/30 10:44:56;;;;;;;3.80;1.55;;;8.20;97.10;;;;;;4993925;28;20176;-67
2021/01/30 10:47:24;;;;;;;5.18;1.85;;;8.30;97.00;;;;;;4992998;28;20189;-67
2021/01/30 10:50:00;;;;;;;5.55;2.03;;;8.30;96.90;;;;;;4994304;28;20257;-68
2021/01/30 10:52:27;;;;;;;4.50;2.90;;;8.20;97.10;;;;;;4994159;28;20200;-67
2021/01/30 10:54:52;;;;;;;4.95;2.83;;;8.30;97.40;;;;;;4993706;28;20231;-67
2021/01/30 10:57:18;;;;;;;1.57;1.47;;;8.40;96.90;;;;;;4994060;28;20275;-67
2021/01/30 10:59:56;;;;;;;5.70;1.37;;;8.40;96.10;;;;;;4993778;28;20177;-67
2021/01/30 11:02:37;;;;;;;1.00;0.90;;;8.20;95.80;;;;;;4994130;28;20271;-67
2021/01/30 11:05:21;;;;;;;2.78;1.50;;;7.90;96.20;;;;;;4993891;28;20591;-67
2021/01/30 11:07:50;;;;;;;5.45;1.40;;;8.10;96.60;;;;;;4994199;28;20579;-67
2021/01/30 11:10:42;;;;;;;2.15;1.80;;;8.10;96.50;;;;;;4993957;28;20198;-67
2021/01/30 11:13:12;;;;;;;2.42;1.33;;;8.20;96.60;;;;;;4994302;28;20236;-67
2021/01/30 11:15:43;;;;;;;3.85;1.50;;;8.20;96.70;;;;;;4993485;28;20241;-67
2021/01/30 11:18:19;;;;;;;2.08;1.88;;;8.20;97.00;;;;;;4992635;28;20182;-67
2021/01/30 11:20:48;;;;;;;1.98;0.98;;;8.30;96.80;;;;;;4994183;28;20169;-68
2021/01/30 11:23:35;;;;;;;6.00;1.52;;;8.30;96.90;;;;;;4993778;28;20221;-67
2021/01/30 11:26:15;;;;;;;2.28;1.38;;;8.30;96.90;;;;;;4993150;28;20234;-67
2021/01/30 11:28:42;;;;;;;1.67;1.55;;;8.20;96.80;;;;;;4997305;28;20173;-67
2021/01/30 11:31:10;;;;;;;1.45;1.05;;;8.20;96.80;;;;;;4997242;28;20182;-67
2021/01/30 11:33:36;;;;;;;1.20;1.10;;;7.90;96.80;;;;;;4996941;28;20294;-67
2021/01/30 11:36:04;;;;;;;2.23;0.97;;;7.90;97.30;;;;;;4996751;28;20598;-67
2021/01/30 11:38:32;;;;;;;0.95;0.85;;;7.90;97.20;;;;;;4997082;28;20175;-67
2021/01/30 11:41:00;;;;;;;2.95;1.13;;;8.00;96.90;;;;;;4996884;28;20169;-67
2021/01/30 11:43:26;;;;;;;5.72;1.58;;;7.80;97.20;;;;;;4996963;28;20237;-67
2021/01/30 11:45:53;;;;;;;3.53;1.15;;;7.80;97.10;;;;;;4996462;28;20204;-67
2021/01/30 11:48:21;;;;;;;2.25;1.45;;;7.80;97.30;;;;;;4996923;28;20526;-67
2021/01/30 11:50:49;;;;;;;4.13;1.30;;;7.80;97.30;;;;;;4996649;28;20182;-67
2021/01/30 11:53:20;;;;;;;2.38;1.33;;;7.70;97.10;;;;;;4996758;28;20184;-67
2021/01/30 11:55:47;;;;;;;3.63;1.30;;;7.60;97.30;;;;;;4996626;28;20261;-67
2021/01/30 11:58:14;;;;;;;4.70;2.50;;;7.60;97.00;;;;;;4996805;28;20263;-67
2021/01/30 12:00:39;;;;;;;2.17;1.42;;;7.60;97.40;;;;;;4996590;28;20169;-67
2021/01/30 12:03:05;;;;;;;3.33;2.60;;;7.70;97.50;;;;;;4996172;28;20198;-67
2021/01/30 12:05:31;;;;;;;2.87;1.80;;;7.70;97.60;;;;;;4996585;28;20181;-67
2021/01/30 12:07:59;;;;;;;4.00;1.85;;;7.70;97.30;;;;;;4996594;28;20554;-67
2021/01/30 12:10:25;;;;;;;1.33;1.13;;;7.50;97.00;;;;;;4996181;28;20201;-67
2021/01/30 12:12:51;;;;;;;1.13;0.85;;;7.40;97.10;;;;;;4996399;28;20188;-67
2021/01/30 12:15:16;;;;;;;1.60;1.17;;;7.30;97.20;;;;;;4996031;28;20302;-67
2021/01/30 12:17:46;;;;;;;0.80;0.80;;;7.30;97.30;;;;;;4996272;28;20175;-67
2021/01/30 12:20:21;;;;;;;1.38;1.25;;;7.20;97.20;;;;;;4996103;28;20539;-67
2021/01/30 12:22:47;;;;;;;1.15;1.05;;;7.10;97.30;;;;;;4996046;28;20183;-67
2021/01/30 12:25:14;;;;;;;1.13;0.80;;;7.00;97.80;;;;;;4995868;28;20541;-67
2021/01/30 12:27:51;;;;;;;2.42;1.30;;;7.00;98.10;;;;;;4996193;28;20187;-67
2021/01/30 12:30:19;;;;;;;2.05;1.38;;;7.00;98.10;;;;;;4995669;28;20187;-67
2021/01/30 12:32:44;;;;;;;4.80;4.05;;;7.10;98.10;;;;;;4995680;28;20214;-67
2021/01/30 12:35:11;;;;;;;7.60;3.50;;;7.10;98.20;;;;;;4995512;28;20204;-67
2021/01/30 12:37:37;;;;;;;5.22;3.60;;;7.00;98.10;;;;;;4995861;28;20176;-67
2021/01/30 12:40:04;;;;;;;5.78;3.80;;;6.90;98.30;;;;;;4995308;28;20268;-67
2021/01/30 12:42:30;;;;;;;4.25;2.53;;;6.90;98.40;;;;;;4995722;28;20196;-67
2021/01/30 12:44:56;;;;;;;7.23;4.23;;;6.90;98.40;;;;;;4995440;28;20223;-67
2021/01/30 12:47:30;;;;;;;6.40;2.70;;;6.90;98.70;;;;;;4995817;28;20177;-67
2021/01/30 12:49:56;;;;;;;7.78;3.33;;;7.00;98.80;;;;;;4995832;28;20303;-67
2021/01/30 12:52:22;;;;;;;3.10;2.23;;;7.00;98.40;;;;;;4995581;28;20640;-66
2021/01/30 12:54:47;;;;;;;5.50;2.77;;;7.10;98.40;;;;;;4995262;28;20469;-67
2021/01/30 12:57:13;;;;;;;5.60;2.20;;;7.10;98.30;;;;;;4995366;28;20179;-67
2021/01/30 12:59:39;;;;;;;1.80;1.50;;;7.00;98.30;;;;;;4995600;28;20553;-67
2021/01/30 13:02:04;;;;;;;2.37;2.10;;;7.10;98.30;;;;;;4995323;28;20172;-66
2021/01/30 13:04:30;;;;;;;1.27;1.20;;;7.20;98.40;;;;;;4995272;28;20282;-67
2021/01/30 13:06:56;;;;;;;4.88;1.70;;;7.20;98.50;;;;;;4995063;28;20781;-67
2021/01/30 13:09:22;;;;;;;1.83;1.67;;;7.30;98.40;;;;;;4995136;28;20226;-67
2021/01/30 13:11:51;;;;;;;5.57;1.70;;;7.40;98.00;;;;;;4995352;28;20494;-67
2021/01/30 13:14:17;;;;;;;0.82;0.70;;;7.40;97.90;;;;;;4994983;28;20200;-67
2021/01/30 13:16:43;;;;;;;6.40;3.97;;;7.40;97.90;;;;;;4994927;28;20180;-67
2021/01/30 13:19:10;;;;;;;6.30;4.35;;;7.40;97.90;;;;;;4995088;28;20214;-67
2021/01/30 13:21:36;;;;;;;5.40;3.70;;;7.30;98.10;;;;;;4995080;28;20183;-67
2021/01/30 13:24:02;;;;;;;7.20;4.20;;;7.30;98.20;;;;;;4995118;28;20193;-67
2021/01/30 13:26:28;;;;;;;3.53;2.30;;;7.40;98.40;;;;;;4994662;28;20454;-67
2021/01/30 13:28:53;;;;;;;3.63;3.07;;;7.30;98.00;;;;;;4994795;28;20431;-67